sensor_id;sensor_type;location;lat;lon;timestamp;pressure;altitude;pressure_sealevel;temperature
28803;BMP280;15949;55.656;37.422;2023-08-08T00:00:20;98711.84;;;20.28
28803;BMP280;15949;55.656;37.422;2023-08-08T00:05:25;98705.47;;;20.25
28803;BMP280;15949;55.656;37.422;2023-08-08T00:10:31;98688.44;;;20.26
28803;BMP280;15949;55.656;37.422;2023-08-08T00:15:37;98684.97;;;20.29
28803;BMP280;15949;55.656;37.422;2023-08-08T00:20:42;98677.03;;;20.29
28803;BMP280;15949;55.656;37.422;2023-08-08T00:25:48;98666.53;;;20.26
28803;BMP280;15949;55.656;37.422;2023-08-08T00:30:56;98652.09;;;20.14
28803;BMP280;15949;55.656;37.422;2023-08-08T00:36:01;98640.84;;;20.10
28803;BMP280;15949;55.656;37.422;2023-08-08T00:41:07;98638.31;;;20.06
28803;BMP280;15949;55.656;37.422;2023-08-08T00:46:20;98641.97;;;19.96
28803;BMP280;15949;55.656;37.422;2023-08-08T00:51:26;98621.22;;;19.79
28803;BMP280;15949;55.656;37.422;2023-08-08T00:56:31;98633.06;;;19.74
28803;BMP280;15949;55.656;37.422;2023-08-08T01:01:37;98642.81;;;19.77
28803;BMP280;15949;55.656;37.422;2023-08-08T01:06:50;98667.28;;;19.81
28803;BMP280;15949;55.656;37.422;2023-08-08T01:12:01;98644.84;;;19.86
28803;BMP280;15949;55.656;37.422;2023-08-08T01:17:08;98631.63;;;19.86
28803;BMP280;15949;55.656;37.422;2023-08-08T01:22:24;98620.66;;;19.87
28803;BMP280;15949;55.656;37.422;2023-08-08T01:27:30;98621.69;;;19.90
28803;BMP280;15949;55.656;37.422;2023-08-08T01:32:36;98627.34;;;19.92
28803;BMP280;15949;55.656;37.422;2023-08-08T01:37:47;98626.75;;;19.84
28803;BMP280;15949;55.656;37.422;2023-08-08T01:42:55;98628.03;;;19.80
28803;BMP280;15949;55.656;37.422;2023-08-08T01:48:06;98621.09;;;19.70
28803;BMP280;15949;55.656;37.422;2023-08-08T01:53:12;98625.28;;;19.67
28803;BMP280;15949;55.656;37.422;2023-08-08T01:58:17;98633.66;;;19.66
28803;BMP280;15949;55.656;37.422;2023-08-08T02:03:23;98636.13;;;19.57
28803;BMP280;15949;55.656;37.422;2023-08-08T02:08:29;98641.25;;;19.48
28803;BMP280;15949;55.656;37.422;2023-08-08T02:13:34;98644.31;;;19.46
28803;BMP280;15949;55.656;37.422;2023-08-08T02:18:40;98635.44;;;19.36
28803;BMP280;15949;55.656;37.422;2023-08-08T02:23:46;98626.06;;;19.35
28803;BMP280;15949;55.656;37.422;2023-08-08T02:28:52;98635.91;;;19.35
28803;BMP280;15949;55.656;37.422;2023-08-08T02:33:57;98637.03;;;19.34
28803;BMP280;15949;55.656;37.422;2023-08-08T02:39:03;98641.56;;;19.33
28803;BMP280;15949;55.656;37.422;2023-08-08T02:44:08;98646.13;;;19.33
28803;BMP280;15949;55.656;37.422;2023-08-08T02:49:14;98647.34;;;19.28
28803;BMP280;15949;55.656;37.422;2023-08-08T02:54:19;98645.22;;;19.23
28803;BMP280;15949;55.656;37.422;2023-08-08T02:59:25;98643.38;;;19.36
28803;BMP280;15949;55.656;37.422;2023-08-08T03:04:31;98639.59;;;19.38
28803;BMP280;15949;55.656;37.422;2023-08-08T03:09:36;98644.03;;;19.41
28803;BMP280;15949;55.656;37.422;2023-08-08T03:14:42;98652.06;;;19.37
28803;BMP280;15949;55.656;37.422;2023-08-08T03:19:47;98656.97;;;19.39
28803;BMP280;15949;55.656;37.422;2023-08-08T03:24:53;98655.78;;;19.40
28803;BMP280;15949;55.656;37.422;2023-08-08T03:29:59;98659.19;;;19.56
28803;BMP280;15949;55.656;37.422;2023-08-08T03:35:04;98657.47;;;19.66
28803;BMP280;15949;55.656;37.422;2023-08-08T03:40:11;98653.97;;;19.69
28803;BMP280;15949;55.656;37.422;2023-08-08T03:45:19;98658.13;;;19.70
28803;BMP280;15949;55.656;37.422;2023-08-08T03:50:24;98667.44;;;19.74
28803;BMP280;15949;55.656;37.422;2023-08-08T03:55:32;98669.50;;;19.83
28803;BMP280;15949;55.656;37.422;2023-08-08T04:00:37;98675.44;;;19.87
28803;BMP280;15949;55.656;37.422;2023-08-08T04:05:46;98681.00;;;19.92
28803;BMP280;15949;55.656;37.422;2023-08-08T04:10:54;98679.59;;;19.88
28803;BMP280;15949;55.656;37.422;2023-08-08T04:16:00;98675.63;;;19.80
28803;BMP280;15949;55.656;37.422;2023-08-08T04:21:06;98686.38;;;19.73
28803;BMP280;15949;55.656;37.422;2023-08-08T04:26:12;98693.88;;;19.74
28803;BMP280;15949;55.656;37.422;2023-08-08T04:31:18;98697.59;;;19.77
28803;BMP280;15949;55.656;37.422;2023-08-08T04:36:23;98692.47;;;19.86
28803;BMP280;15949;55.656;37.422;2023-08-08T04:41:29;98687.81;;;19.90
28803;BMP280;15949;55.656;37.422;2023-08-08T04:46:34;98684.53;;;19.86
28803;BMP280;15949;55.656;37.422;2023-08-08T04:51:40;98694.63;;;19.91
28803;BMP280;15949;55.656;37.422;2023-08-08T04:56:45;98687.81;;;19.90
28803;BMP280;15949;55.656;37.422;2023-08-08T05:01:51;98689.97;;;19.95
28803;BMP280;15949;55.656;37.422;2023-08-08T05:06:57;98699.31;;;19.99
28803;BMP280;15949;55.656;37.422;2023-08-08T05:12:03;98696.00;;;20.11
28803;BMP280;15949;55.656;37.422;2023-08-08T05:17:09;98700.47;;;20.14
28803;BMP280;15949;55.656;37.422;2023-08-08T05:22:14;98711.16;;;20.11
28803;BMP280;15949;55.656;37.422;2023-08-08T05:27:20;98704.97;;;20.30
28803;BMP280;15949;55.656;37.422;2023-08-08T05:32:25;98701.91;;;20.60
28803;BMP280;15949;55.656;37.422;2023-08-08T05:37:31;98705.84;;;20.68
28803;BMP280;15949;55.656;37.422;2023-08-08T05:42:39;98706.84;;;20.87
28803;BMP280;15949;55.656;37.422;2023-08-08T05:47:45;98709.28;;;21.07
28803;BMP280;15949;55.656;37.422;2023-08-08T05:52:50;98704.59;;;21.11
28803;BMP280;15949;55.656;37.422;2023-08-08T05:57:56;98711.16;;;20.93
28803;BMP280;15949;55.656;37.422;2023-08-08T06:03:02;98717.75;;;21.01
28803;BMP280;15949;55.656;37.422;2023-08-08T06:08:07;98723.69;;;21.05
28803;BMP280;15949;55.656;37.422;2023-08-08T06:13:16;98719.16;;;21.19
28803;BMP280;15949;55.656;37.422;2023-08-08T06:18:22;98710.88;;;21.42
28803;BMP280;15949;55.656;37.422;2023-08-08T06:23:27;98714.22;;;21.80
28803;BMP280;15949;55.656;37.422;2023-08-08T06:28:33;98706.16;;;22.05
28803;BMP280;15949;55.656;37.422;2023-08-08T06:33:39;98714.03;;;21.96
28803;BMP280;15949;55.656;37.422;2023-08-08T06:38:45;98710.94;;;22.10
28803;BMP280;15949;55.656;37.422;2023-08-08T06:43:51;98721.00;;;22.37
28803;BMP280;15949;55.656;37.422;2023-08-08T06:48:56;98716.88;;;22.66
28803;BMP280;15949;55.656;37.422;2023-08-08T06:54:04;98717.16;;;22.59
28803;BMP280;15949;55.656;37.422;2023-08-08T06:59:09;98721.13;;;22.55
28803;BMP280;15949;55.656;37.422;2023-08-08T07:04:15;98733.22;;;22.77
28803;BMP280;15949;55.656;37.422;2023-08-08T07:09:21;98740.75;;;23.10
28803;BMP280;15949;55.656;37.422;2023-08-08T07:14:27;98731.75;;;23.16
28803;BMP280;15949;55.656;37.422;2023-08-08T07:19:32;98736.38;;;23.25
28803;BMP280;15949;55.656;37.422;2023-08-08T07:24:38;98736.44;;;23.61
28803;BMP280;15949;55.656;37.422;2023-08-08T07:29:44;98727.72;;;23.88
28803;BMP280;15949;55.656;37.422;2023-08-08T07:34:50;98733.69;;;23.82
28803;BMP280;15949;55.656;37.422;2023-08-08T07:39:55;98744.91;;;23.68
28803;BMP280;15949;55.656;37.422;2023-08-08T07:45:01;98739.81;;;23.52
28803;BMP280;15949;55.656;37.422;2023-08-08T07:50:07;98748.25;;;23.42
28803;BMP280;15949;55.656;37.422;2023-08-08T07:55:16;98753.59;;;23.42
28803;BMP280;15949;55.656;37.422;2023-08-08T08:00:21;98763.78;;;23.52
28803;BMP280;15949;55.656;37.422;2023-08-08T08:05:27;98755.38;;;23.63
28803;BMP280;15949;55.656;37.422;2023-08-08T08:10:32;98757.03;;;23.88
28803;BMP280;15949;55.656;37.422;2023-08-08T08:15:38;98761.31;;;24.39
28803;BMP280;15949;55.656;37.422;2023-08-08T08:20:44;98755.00;;;24.88
28803;BMP280;15949;55.656;37.422;2023-08-08T08:25:49;98754.81;;;25.24
28803;BMP280;15949;55.656;37.422;2023-08-08T08:30:55;98757.03;;;24.93
28803;BMP280;15949;55.656;37.422;2023-08-08T08:36:01;98760.66;;;25.37
28803;BMP280;15949;55.656;37.422;2023-08-08T08:41:08;98768.91;;;25.71
28803;BMP280;15949;55.656;37.422;2023-08-08T08:46:20;98778.03;;;25.79
28803;BMP280;15949;55.656;37.422;2023-08-08T08:51:27;98776.28;;;25.53
28803;BMP280;15949;55.656;37.422;2023-08-08T08:56:33;98774.13;;;26.04
28803;BMP280;15949;55.656;37.422;2023-08-08T09:01:39;98772.13;;;25.75
28803;BMP280;15949;55.656;37.422;2023-08-08T09:06:46;98768.53;;;26.17
28803;BMP280;15949;55.656;37.422;2023-08-08T09:11:53;98776.63;;;26.08
28803;BMP280;15949;55.656;37.422;2023-08-08T09:17:01;98768.44;;;26.11
28803;BMP280;15949;55.656;37.422;2023-08-08T09:22:07;98771.66;;;25.77
28803;BMP280;15949;55.656;37.422;2023-08-08T09:27:13;98776.88;;;25.57
28803;BMP280;15949;55.656;37.422;2023-08-08T09:32:19;98784.72;;;25.28
28803;BMP280;15949;55.656;37.422;2023-08-08T09:37:25;98784.88;;;25.33
28803;BMP280;15949;55.656;37.422;2023-08-08T09:42:31;98789.09;;;25.40
28803;BMP280;15949;55.656;37.422;2023-08-08T09:47:37;98786.78;;;25.33
28803;BMP280;15949;55.656;37.422;2023-08-08T09:52:43;98789.72;;;25.44
28803;BMP280;15949;55.656;37.422;2023-08-08T09:57:49;98782.31;;;25.39
28803;BMP280;15949;55.656;37.422;2023-08-08T10:02:56;98792.28;;;25.29
28803;BMP280;15949;55.656;37.422;2023-08-08T10:08:02;98788.22;;;25.43
28803;BMP280;15949;55.656;37.422;2023-08-08T10:13:08;98786.25;;;25.20
28803;BMP280;15949;55.656;37.422;2023-08-08T10:18:13;98786.69;;;25.27
28803;BMP280;15949;55.656;37.422;2023-08-08T10:23:20;98792.22;;;25.15
28803;BMP280;15949;55.656;37.422;2023-08-08T10:28:25;98795.50;;;25.01
28803;BMP280;15949;55.656;37.422;2023-08-08T10:33:41;98812.19;;;24.77
28803;BMP280;15949;55.656;37.422;2023-08-08T10:38:49;98805.84;;;24.75
28803;BMP280;15949;55.656;37.422;2023-08-08T10:43:58;98812.19;;;24.68
28803;BMP280;15949;55.656;37.422;2023-08-08T10:49:05;98812.78;;;24.54
28803;BMP280;15949;55.656;37.422;2023-08-08T10:54:24;98822.88;;;24.41
28803;BMP280;15949;55.656;37.422;2023-08-08T10:59:37;98825.44;;;24.18
28803;BMP280;15949;55.656;37.422;2023-08-08T11:04:43;98836.47;;;23.98
28803;BMP280;15949;55.656;37.422;2023-08-08T11:09:48;98837.63;;;23.88
28803;BMP280;15949;55.656;37.422;2023-08-08T11:14:54;98843.22;;;23.72
28803;BMP280;15949;55.656;37.422;2023-08-08T11:20:00;98835.84;;;23.67
28803;BMP280;15949;55.656;37.422;2023-08-08T11:25:07;98830.69;;;23.81
28803;BMP280;15949;55.656;37.422;2023-08-08T11:30:13;98836.19;;;24.05
28803;BMP280;15949;55.656;37.422;2023-08-08T11:35:22;98838.84;;;24.68
28803;BMP280;15949;55.656;37.422;2023-08-08T11:40:29;98836.31;;;25.57
28803;BMP280;15949;55.656;37.422;2023-08-08T11:45:35;98838.06;;;26.75
28803;BMP280;15949;55.656;37.422;2023-08-08T11:50:40;98840.97;;;27.41
28803;BMP280;15949;55.656;37.422;2023-08-08T11:55:47;98825.03;;;27.32
28803;BMP280;15949;55.656;37.422;2023-08-08T12:00:53;98838.56;;;26.35
28803;BMP280;15949;55.656;37.422;2023-08-08T12:05:59;98843.97;;;26.12
28803;BMP280;15949;55.656;37.422;2023-08-08T12:11:05;98840.22;;;26.18
28803;BMP280;15949;55.656;37.422;2023-08-08T12:16:13;98844.44;;;26.10
28803;BMP280;15949;55.656;37.422;2023-08-08T12:21:18;98837.97;;;27.19
28803;BMP280;15949;55.656;37.422;2023-08-08T12:26:24;98833.34;;;27.94
28803;BMP280;15949;55.656;37.422;2023-08-08T12:31:30;98836.84;;;28.05
28803;BMP280;15949;55.656;37.422;2023-08-08T12:36:35;98843.22;;;28.34
28803;BMP280;15949;55.656;37.422;2023-08-08T12:41:41;98841.09;;;28.38
28803;BMP280;15949;55.656;37.422;2023-08-08T12:46:46;98834.47;;;28.64
28803;BMP280;15949;55.656;37.422;2023-08-08T12:51:52;98832.28;;;28.37
28803;BMP280;15949;55.656;37.422;2023-08-08T12:57:00;98836.06;;;27.39
28803;BMP280;15949;55.656;37.422;2023-08-08T13:02:07;98835.34;;;27.39
28803;BMP280;15949;55.656;37.422;2023-08-08T13:07:13;98834.81;;;27.55
28803;BMP280;15949;55.656;37.422;2023-08-08T13:12:18;98824.69;;;27.64
28803;BMP280;15949;55.656;37.422;2023-08-08T13:17:24;98825.50;;;27.50
28803;BMP280;15949;55.656;37.422;2023-08-08T13:22:30;98831.59;;;26.81
28803;BMP280;15949;55.656;37.422;2023-08-08T13:27:35;98826.97;;;26.67
28803;BMP280;15949;55.656;37.422;2023-08-08T13:32:41;98829.28;;;27.24
28803;BMP280;15949;55.656;37.422;2023-08-08T13:37:47;98826.03;;;26.70
28803;BMP280;15949;55.656;37.422;2023-08-08T13:42:57;98822.94;;;26.86
28803;BMP280;15949;55.656;37.422;2023-08-08T13:48:03;98830.44;;;27.17
28803;BMP280;15949;55.656;37.422;2023-08-08T13:53:08;98826.78;;;27.00
28803;BMP280;15949;55.656;37.422;2023-08-08T13:58:14;98830.94;;;26.43
28803;BMP280;15949;55.656;37.422;2023-08-08T14:03:20;98831.25;;;26.07
28803;BMP280;15949;55.656;37.422;2023-08-08T14:08:25;98831.72;;;26.05
28803;BMP280;15949;55.656;37.422;2023-08-08T14:13:31;98841.34;;;26.41
28803;BMP280;15949;55.656;37.422;2023-08-08T14:18:36;98843.47;;;26.22
28803;BMP280;15949;55.656;37.422;2023-08-08T14:23:42;98845.00;;;26.14
28803;BMP280;15949;55.656;37.422;2023-08-08T14:28:49;98841.72;;;26.19
28803;BMP280;15949;55.656;37.422;2023-08-08T14:33:55;98849.13;;;25.77
28803;BMP280;15949;55.656;37.422;2023-08-08T14:39:00;98854.91;;;25.52
28803;BMP280;15949;55.656;37.422;2023-08-08T14:44:06;98852.66;;;25.18
28803;BMP280;15949;55.656;37.422;2023-08-08T14:49:11;98855.81;;;25.07
28803;BMP280;15949;55.656;37.422;2023-08-08T14:54:17;98858.88;;;25.24
28803;BMP280;15949;55.656;37.422;2023-08-08T14:59:23;98866.78;;;25.00
28803;BMP280;15949;55.656;37.422;2023-08-08T15:04:28;98870.84;;;24.68
28803;BMP280;15949;55.656;37.422;2023-08-08T15:09:34;98878.84;;;24.41
28803;BMP280;15949;55.656;37.422;2023-08-08T15:14:39;98877.91;;;25.08
28803;BMP280;15949;55.656;37.422;2023-08-08T15:19:45;98883.50;;;25.10
28803;BMP280;15949;55.656;37.422;2023-08-08T15:24:51;98884.63;;;24.67
28803;BMP280;15949;55.656;37.422;2023-08-08T15:29:56;98898.22;;;24.42
28803;BMP280;15949;55.656;37.422;2023-08-08T15:35:02;98893.38;;;24.31
28803;BMP280;15949;55.656;37.422;2023-08-08T15:40:08;98908.13;;;24.14
28803;BMP280;15949;55.656;37.422;2023-08-08T15:45:14;98905.66;;;23.80
28803;BMP280;15949;55.656;37.422;2023-08-08T15:50:19;98912.50;;;23.50
28803;BMP280;15949;55.656;37.422;2023-08-08T15:55:25;98934.50;;;23.42
28803;BMP280;15949;55.656;37.422;2023-08-08T16:00:31;98934.25;;;23.06
28803;BMP280;15949;55.656;37.422;2023-08-08T16:05:36;98939.84;;;23.08
28803;BMP280;15949;55.656;37.422;2023-08-08T16:10:42;98930.63;;;23.00
28803;BMP280;15949;55.656;37.422;2023-08-08T16:15:47;98930.69;;;22.87
28803;BMP280;15949;55.656;37.422;2023-08-08T16:20:53;98948.47;;;22.77
28803;BMP280;15949;55.656;37.422;2023-08-08T16:25:59;98951.31;;;22.61
28803;BMP280;15949;55.656;37.422;2023-08-08T16:31:05;98971.72;;;22.52
28803;BMP280;15949;55.656;37.422;2023-08-08T16:36:11;98974.47;;;22.36
28803;BMP280;15949;55.656;37.422;2023-08-08T16:41:17;98977.78;;;22.27
28803;BMP280;15949;55.656;37.422;2023-08-08T16:46:22;98987.34;;;22.12
28803;BMP280;15949;55.656;37.422;2023-08-08T16:51:28;98984.13;;;21.92
28803;BMP280;15949;55.656;37.422;2023-08-08T16:56:33;98989.94;;;21.74
28803;BMP280;15949;55.656;37.422;2023-08-08T17:01:39;98996.38;;;21.61
28803;BMP280;15949;55.656;37.422;2023-08-08T17:06:46;99006.53;;;21.50
28803;BMP280;15949;55.656;37.422;2023-08-08T17:11:52;99015.19;;;21.38
28803;BMP280;15949;55.656;37.422;2023-08-08T17:16:58;99016.03;;;21.35
28803;BMP280;15949;55.656;37.422;2023-08-08T17:22:04;99026.81;;;21.28
28803;BMP280;15949;55.656;37.422;2023-08-08T17:27:09;99034.84;;;21.24
28803;BMP280;15949;55.656;37.422;2023-08-08T17:32:15;99036.09;;;21.20
28803;BMP280;15949;55.656;37.422;2023-08-08T17:37:20;99037.13;;;21.10
28803;BMP280;15949;55.656;37.422;2023-08-08T17:42:26;99048.69;;;21.16
28803;BMP280;15949;55.656;37.422;2023-08-08T17:47:31;99048.78;;;21.12
28803;BMP280;15949;55.656;37.422;2023-08-08T17:52:38;99047.13;;;21.02
28803;BMP280;15949;55.656;37.422;2023-08-08T17:57:44;99055.66;;;20.93
28803;BMP280;15949;55.656;37.422;2023-08-08T18:02:49;99061.53;;;20.85
28803;BMP280;15949;55.656;37.422;2023-08-08T18:07:55;99061.53;;;20.69
28803;BMP280;15949;55.656;37.422;2023-08-08T18:13:02;99061.75;;;20.58
28803;BMP280;15949;55.656;37.422;2023-08-08T18:18:07;99060.69;;;20.56
28803;BMP280;15949;55.656;37.422;2023-08-08T18:23:13;99065.22;;;20.55
28803;BMP280;15949;55.656;37.422;2023-08-08T18:28:19;99069.34;;;20.56
28803;BMP280;15949;55.656;37.422;2023-08-08T18:33:26;99062.22;;;20.53
28803;BMP280;15949;55.656;37.422;2023-08-08T18:38:31;99053.81;;;20.58
28803;BMP280;15949;55.656;37.422;2023-08-08T18:43:38;99061.38;;;20.56
28803;BMP280;15949;55.656;37.422;2023-08-08T18:48:44;99060.06;;;20.48
28803;BMP280;15949;55.656;37.422;2023-08-08T18:53:50;99057.84;;;20.47
28803;BMP280;15949;55.656;37.422;2023-08-08T18:58:56;99061.63;;;20.46
28803;BMP280;15949;55.656;37.422;2023-08-08T19:04:01;99062.94;;;20.38
28803;BMP280;15949;55.656;37.422;2023-08-08T19:09:07;99066.06;;;20.33
28803;BMP280;15949;55.656;37.422;2023-08-08T19:14:16;99063.91;;;20.28
28803;BMP280;15949;55.656;37.422;2023-08-08T19:19:22;99056.56;;;20.15
28803;BMP280;15949;55.656;37.422;2023-08-08T19:24:27;99066.53;;;20.08
28803;BMP280;15949;55.656;37.422;2023-08-08T19:29:33;99079.66;;;19.95
28803;BMP280;15949;55.656;37.422;2023-08-08T19:34:38;99079.50;;;19.83
28803;BMP280;15949;55.656;37.422;2023-08-08T19:39:44;99080.63;;;19.82
28803;BMP280;15949;55.656;37.422;2023-08-08T19:44:49;99075.03;;;19.80
28803;BMP280;15949;55.656;37.422;2023-08-08T19:49:55;99063.13;;;19.68
28803;BMP280;15949;55.656;37.422;2023-08-08T19:55:01;99059.53;;;19.59
28803;BMP280;15949;55.656;37.422;2023-08-08T20:00:08;99067.63;;;19.48
28803;BMP280;15949;55.656;37.422;2023-08-08T20:05:14;99050.34;;;19.44
28803;BMP280;15949;55.656;37.422;2023-08-08T20:10:20;99057.34;;;19.30
28803;BMP280;15949;55.656;37.422;2023-08-08T20:15:26;99062.84;;;19.16
28803;BMP280;15949;55.656;37.422;2023-08-08T20:20:31;99058.34;;;19.13
28803;BMP280;15949;55.656;37.422;2023-08-08T20:25:37;99056.06;;;19.15
28803;BMP280;15949;55.656;37.422;2023-08-08T20:30:43;99062.84;;;19.16
28803;BMP280;15949;55.656;37.422;2023-08-08T20:35:49;99061.63;;;19.21
28803;BMP280;15949;55.656;37.422;2023-08-08T20:40:55;99057.09;;;19.21
28803;BMP280;15949;55.656;37.422;2023-08-08T20:46:01;99049.53;;;19.23
28803;BMP280;15949;55.656;37.422;2023-08-08T20:51:06;99044.22;;;19.23
28803;BMP280;15949;55.656;37.422;2023-08-08T20:56:12;99049.22;;;19.18
28803;BMP280;15949;55.656;37.422;2023-08-08T21:01:17;99049.41;;;19.07
28803;BMP280;15949;55.656;37.422;2023-08-08T21:06:24;99051.03;;;18.98
28803;BMP280;15949;55.656;37.422;2023-08-08T21:11:30;99057.28;;;18.84
28803;BMP280;15949;55.656;37.422;2023-08-08T21:16:35;99048.44;;;18.68
28803;BMP280;15949;55.656;37.422;2023-08-08T21:21:41;99063.53;;;18.67
28803;BMP280;15949;55.656;37.422;2023-08-08T21:26:46;99057.63;;;18.56
28803;BMP280;15949;55.656;37.422;2023-08-08T21:31:52;99052.47;;;18.45
28803;BMP280;15949;55.656;37.422;2023-08-08T21:36:58;99055.78;;;18.23
28803;BMP280;15949;55.656;37.422;2023-08-08T21:42:04;99051.59;;;18.25
28803;BMP280;15949;55.656;37.422;2023-08-08T21:47:09;99050.16;;;18.21
28803;BMP280;15949;55.656;37.422;2023-08-08T21:52:15;99042.00;;;18.08
28803;BMP280;15949;55.656;37.422;2023-08-08T21:57:21;99044.66;;;18.05
28803;BMP280;15949;55.656;37.422;2023-08-08T22:02:26;99048.44;;;18.04
28803;BMP280;15949;55.656;37.422;2023-08-08T22:07:32;99044.19;;;18.13
28803;BMP280;15949;55.656;37.422;2023-08-08T22:12:38;99056.50;;;18.27
28803;BMP280;15949;55.656;37.422;2023-08-08T22:17:43;99050.78;;;18.32
28803;BMP280;15949;55.656;37.422;2023-08-08T22:22:49;99047.72;;;18.33
28803;BMP280;15949;55.656;37.422;2023-08-08T22:27:55;99041.13;;;18.18
28803;BMP280;15949;55.656;37.422;2023-08-08T22:33:00;99037.03;;;18.14
28803;BMP280;15949;55.656;37.422;2023-08-08T22:38:06;99043.09;;;18.11
28803;BMP280;15949;55.656;37.422;2023-08-08T22:43:12;99036.03;;;18.04
28803;BMP280;15949;55.656;37.422;2023-08-08T22:48:17;99026.25;;;17.98
28803;BMP280;15949;55.656;37.422;2023-08-08T22:53:23;99026.72;;;17.89
28803;BMP280;15949;55.656;37.422;2023-08-08T22:58:28;99038.41;;;17.88
28803;BMP280;15949;55.656;37.422;2023-08-08T23:03:36;99045.53;;;17.95
28803;BMP280;15949;55.656;37.422;2023-08-08T23:08:42;99043.31;;;17.90
28803;BMP280;15949;55.656;37.422;2023-08-08T23:13:48;99039.19;;;17.85
28803;BMP280;15949;55.656;37.422;2023-08-08T23:18:54;99032.09;;;17.78
28803;BMP280;15949;55.656;37.422;2023-08-08T23:23:59;99034.75;;;17.78
28803;BMP280;15949;55.656;37.422;2023-08-08T23:29:05;99032.16;;;17.75
28803;BMP280;15949;55.656;37.422;2023-08-08T23:34:11;99035.94;;;17.70
28803;BMP280;15949;55.656;37.422;2023-08-08T23:39:17;99034.84;;;17.68
28803;BMP280;15949;55.656;37.422;2023-08-08T23:44:23;99028.56;;;17.55
28803;BMP280;15949;55.656;37.422;2023-08-08T23:49:28;99032.81;;;17.38
28803;BMP280;15949;55.656;37.422;2023-08-08T23:54:34;99037.91;;;17.15
28803;BMP280;15949;55.656;37.422;2023-08-08T23:59:39;99039.47;;;17.06
